Terminal Aerodrome Forecast
Issued by NWS Sterling, VA

Current Version | Previous Version | Graphics & Text | Print | Product List | Glossary On
Versions: 1 2 3 4 5 6 7 8 9 10 11 12 13 14 15 16 17 18 19 20
000
FTUS41 KLWX 301135
TAFMRB
TAF
KMRB 301135Z 3012/0112 19008KT P6SM BKN070
     FM301600 19008KT P6SM VCTS BKN050CB
     FM301900 20010G17KT P6SM -TSRA BKN050CB
     FM302200 20008KT P6SM VCTS BKN050CB
     FM010000 20005KT P6SM BKN050=

USA.gov is the U.S. government's official web portal to all federal, state and local government web resources and services.